»·PEaware :: N814DK KAJO-KVCV

N814DK :: KAJO-KVCV

FLIGHT INFORMATION

Flight Status: Arrived
Operator: Privately registered:
United States
More flights under this callsign
Pilot: David K. (25024)
Aircraft: CIRRUS SR-22
(SR22)
More flights by this aircraft type
Origin: KAJO Corona Mun
United States
Destination: KVCV Socal Logistics
United States
More flights between these airports :: More routes between these airports
Route: +PDZ V442 APLES
File this flight plan on PilotEdge
Remarks:
Altitude:
(Current/Filed)
9,000ft
Speed:
(Current/Filed)
160kts
Departed: 05-Nov-20 06:12 PM
Arrived: 05-Nov-20 08:04 PM
Distance/Time
Traveled:
44nm/1:51
Distance/Time
To Go:
Arrived

Flight Plot

Page will automatically refresh every two minutes.


Map Options




Map Legend


Flown Route
Filed Route
Departure Airport
Arrival Airport
Navaid (VOR, NDB)
Fix

Horizontal Profiles

Position Reports

Time Latitude Longitude Heading Altitude Ground
Speed
05-Nov-20 18:02 33.896924 -117.602001 181 536ft 0kts
05-Nov-20 18:03 33.896924 -117.602001 181 536ft 0kts
05-Nov-20 18:04 33.896924 -117.602001 181 536ft 0kts
05-Nov-20 18:05 33.896924 -117.602001 181 536ft 0kts
05-Nov-20 18:06 33.896924 -117.602001 181 536ft 0kts
05-Nov-20 18:07 33.897294 -117.600605 93 536ft 9kts
05-Nov-20 18:08 33.897303 -117.597747 63 536ft 0kts
05-Nov-20 18:09 33.897322 -117.597690 63 536ft 5kts
05-Nov-20 18:10 33.897728 -117.597764 279 536ft 0kts
05-Nov-20 18:11 33.898238 -117.622118 282 1226ft 114kts
05-Nov-20 18:12 33.921580 -117.648891 8 2409ft 131kts
05-Nov-20 18:13 33.928920 -117.611799 101 3748ft 130kts
05-Nov-20 18:14 33.922372 -117.568823 102 4928ft 132kts
05-Nov-20 18:15 33.921130 -117.524535 90 5963ft 135kts
05-Nov-20 18:16 33.950850 -117.510800 336 6936ft 131kts
05-Nov-20 18:17 33.938528 -117.531943 167 7729ft 135kts
05-Nov-20 18:18 33.929565 -117.560237 330 8487ft 145kts
05-Nov-20 18:19 33.959763 -117.537492 43 9019ft 144kts
05-Nov-20 18:20 33.993878 -117.508334 31 9010ft 153kts
05-Nov-20 18:21 34.031265 -117.482838 29 9014ft 152kts
05-Nov-20 18:22 34.068402 -117.458498 29 9020ft 151kts
05-Nov-20 18:23 34.105802 -117.434163 30 9023ft 157kts
05-Nov-20 18:24 34.145047 -117.408530 30 9026ft 162kts
05-Nov-20 18:25 34.184762 -117.382627 30 9026ft 162kts
05-Nov-20 18:26 34.224491 -117.356691 30 9026ft 162kts
05-Nov-20 18:27 34.264076 -117.330815 30 9041ft 162kts
05-Nov-20 18:28 34.303827 -117.304808 30 9066ft 163kts
05-Nov-20 18:29 34.342693 -117.279354 29 9037ft 156kts
05-Nov-20 18:30 34.380879 -117.254314 29 8543ft 157kts
05-Nov-20 18:31 34.419265 -117.229122 29 8098ft 154kts
05-Nov-20 18:32 34.455556 -117.206040 27 8103ft 143kts
05-Nov-20 18:33 34.490819 -117.184629 27 8119ft 141kts
05-Nov-20 18:34 34.526102 -117.163152 27 8138ft 142kts
05-Nov-20 18:35 34.562885 -117.146180 11 8163ft 144kts
05-Nov-20 18:36 34.604354 -117.143453 359 7800ft 152kts
05-Nov-20 18:37 34.646300 -117.151343 347 7301ft 153kts
05-Nov-20 18:38 34.686141 -117.169763 335 6807ft 154kts
05-Nov-20 18:39 34.720548 -117.196576 324 6761ft 142kts
05-Nov-20 18:40 34.748705 -117.229584 313 6757ft 139kts
05-Nov-20 18:41 34.770797 -117.267835 302 6757ft 138kts
05-Nov-20 18:42 34.786620 -117.310668 291 6722ft 142kts
05-Nov-20 18:43 34.795545 -117.356874 280 6088ft 143kts
05-Nov-20 18:44 34.794239 -117.374109 238 5800ft 149kts
05-Nov-20 18:52 34.464811 -117.365035 164 5356ft 174kts
05-Nov-20 18:53 34.418094 -117.348708 161 5351ft 175kts
05-Nov-20 18:54 33.896924 -117.602002 181 536ft 0kts
05-Nov-20 18:55 33.896924 -117.602002 181 536ft 0kts
05-Nov-20 18:56 33.896924 -117.602002 181 536ft 0kts
05-Nov-20 18:57 33.896924 -117.602002 181 536ft 0kts
05-Nov-20 18:58 33.896924 -117.602002 181 536ft 0kts
05-Nov-20 18:59 33.896924 -117.602002 181 536ft 0kts
05-Nov-20 19:00 33.896924 -117.602002 181 536ft 0kts
05-Nov-20 19:01 33.896924 -117.602002 181 536ft 0kts
05-Nov-20 19:02 33.896924 -117.602002 181 536ft 0kts
05-Nov-20 19:03 33.896924 -117.602002 181 536ft 0kts
05-Nov-20 19:04 33.897105 -117.601480 32 536ft 2kts
05-Nov-20 19:05 33.897257 -117.597867 81 536ft 7kts
05-Nov-20 19:06 33.897282 -117.597789 57 536ft 0kts
05-Nov-20 19:07 33.897622 -117.606553 269 678ft 99kts
05-Nov-20 19:08 33.906354 -117.636808 356 2208ft 113kts
05-Nov-20 19:09 33.920330 -117.601401 96 2874ft 160kts
05-Nov-20 19:10 33.918535 -117.545705 89 2975ft 161kts
05-Nov-20 19:11 33.942002 -117.516732 30 4016ft 138kts
05-Nov-20 19:12 33.976849 -117.511894 294 4009ft 158kts
05-Nov-20 19:13 33.951783 -117.534294 173 4983ft 131kts
05-Nov-20 19:14 33.915917 -117.534155 217 5732ft 134kts
05-Nov-20 19:15 33.927714 -117.560212 21 6393ft 127kts
05-Nov-20 19:17 33.959258 -117.541500 62 7264ft 128kts
05-Nov-20 19:18 33.937280 -117.526995 216 8138ft 139kts
05-Nov-20 19:19 33.921444 -117.561969 308 8892ft 140kts
05-Nov-20 19:20 33.954431 -117.549809 39 9013ft 154kts
05-Nov-20 19:21 33.991335 -117.520583 32 9007ft 158kts
05-Nov-20 19:22 34.029537 -117.494152 31 9010ft 158kts
05-Nov-20 19:23 34.067920 -117.468140 30 9013ft 158kts
05-Nov-20 19:24 34.106098 -117.442329 31 9015ft 156kts
05-Nov-20 19:25 34.144851 -117.416084 31 9019ft 162kts
05-Nov-20 19:26 34.184260 -117.389395 31 9019ft 162kts
05-Nov-20 19:27 34.223616 -117.362925 31 9018ft 162kts
05-Nov-20 19:28 34.263293 -117.336935 30 9031ft 162kts
05-Nov-20 19:29 34.302959 -117.310953 30 9058ft 162kts
05-Nov-20 19:30 34.343087 -117.284602 29 8946ft 163kts
05-Nov-20 19:31 34.381283 -117.259573 29 8949ft 153kts
05-Nov-20 19:32 34.418623 -117.235037 29 8954ft 152kts
05-Nov-20 19:33 34.456584 -117.210054 29 8506ft 159kts
05-Nov-20 19:33 34.488995 -117.188726 28 7978ft 158kts
05-Nov-20 19:35 34.531040 -117.161028 29 7992ft 142kts
05-Nov-20 19:35 34.561313 -117.146489 11 7917ft 148kts
05-Nov-20 19:37 34.611559 -117.144036 356 7361ft 158kts
05-Nov-20 19:37 34.647761 -117.151817 346 6950ft 160kts
05-Nov-20 19:38 34.686917 -117.170267 334 6610ft 141kts
05-Nov-20 19:39 34.718478 -117.194622 324 6616ft 132kts
05-Nov-20 19:40 34.745466 -117.225099 314 6613ft 132kts
05-Nov-20 19:41 34.767520 -117.261103 304 6611ft 133kts
05-Nov-20 19:42 34.784220 -117.302530 293 6447ft 144kts
05-Nov-20 19:43 34.794882 -117.351312 281 5957ft 153kts
05-Nov-20 19:44 34.774371 -117.379031 163 5221ft 128kts
05-Nov-20 19:45 34.742059 -117.377373 182 4295ft 116kts
05-Nov-20 19:46 34.712870 -117.379626 183 4255ft 105kts
05-Nov-20 19:47 34.681770 -117.382425 185 3913ft 119kts
05-Nov-20 19:48 34.649732 -117.385170 186 3382ft 103kts
05-Nov-20 19:49 34.621287 -117.386039 178 3403ft 117kts
05-Nov-20 19:50 34.599394 -117.406837 289 3991ft 120kts
05-Nov-20 19:51 34.608258 -117.442637 267 4544ft 119kts
05-Nov-20 19:52 34.612920 -117.482901 280 5025ft 120kts
05-Nov-20 19:53 34.620055 -117.522859 281 5437ft 121kts
05-Nov-20 19:54 34.628042 -117.564558 293 5463ft 130kts
05-Nov-20 19:55 34.648990 -117.555524 131 5219ft 110kts
05-Nov-20 19:56 34.629094 -117.527640 118 4239ft 123kts
05-Nov-20 19:57 34.613147 -117.497665 128 4010ft 100kts
05-Nov-20 19:58 34.594732 -117.471949 137 3984ft 103kts
05-Nov-20 19:59 34.595394 -117.437310 58 3596ft 111kts
05-Nov-20 20:00 34.623389 -117.425058 7 3708ft 108kts
05-Nov-20 20:01 34.632661 -117.395876 101 3283ft 99kts
05-Nov-20 20:02 34.613403 -117.386721 180 2821ft 44kts
05-Nov-20 20:03 34.610547 -117.385567 83 2827ft 0kts
05-Nov-20 20:04 34.610569 -117.384932 93 2827ft 11kts
05-Nov-20 20:05 34.609444 -117.383228 77 2829ft 0kts

Navigation Log

Ident Type
Flight plan parsing failed, navigation log unavailable